Decoded Metar for KMOT (MINOT in ND, USA) (IATA:MOT) | Meteo·Mobile Aviation Weather
aviador You're here:

KMOT Decoded Metar

MINOT in ND, USA
Report Time2019-02-23 07:54:00
UTC Time2019-02-23 08:28:35
Flight Rules mvfr MVFR
WindCalm
Visibility8047 m
Phenomena:Mist
Clouds:N/A
Expected CloudBase > 800 ft AGL from Temp-Dew spread
CeilingNone
Temp-19°C (ISA -31)
Dew Point-21°C (84% RH)
AAT-22.6°C
QNH1014 hPa
Density Alt-2,201 ft
Elevation1,703 ft
Report Wrong Elevation
Raw Report
KMOT 230754Z AUTO 00000KT 5SM BR CLR M19/M21 A2995 RMK AO2 SLP186
T11891211=

Extra information for KMOT:More info

Metar Taf Metar & Taf Last 4 Metars F.Rules Stats Wind Profile Meteogram Temp Stats Airport Information Weather charts Add Link Nearby VenuesMetar ALERT Operation Metar Decoded Social comments

AIRNAV info for KMOT